createdAt,value
2022-08-14T00:00:41.746Z,94.30
2022-08-14T00:01:50.244Z,94.20
2022-08-14T00:02:58.037Z,94.50
2022-08-14T00:04:02.326Z,94.20
2022-08-14T00:05:28.497Z,94.20
2022-08-14T00:06:32.325Z,94.40
2022-08-14T00:07:41.997Z,94.40
2022-08-14T00:08:46.841Z,93.90
2022-08-14T00:10:02.049Z,94.40
2022-08-14T00:11:14.920Z,94.30
2022-08-14T00:12:23.651Z,94.00
2022-08-14T00:13:29.313Z,94.20
2022-08-14T00:16:11.469Z,94.30
2022-08-14T00:17:38.140Z,94.40
2022-08-14T00:19:06.967Z,94.30
2022-08-14T00:20:23.864Z,94.10
2022-08-14T00:21:30.969Z,94.40
2022-08-14T00:22:57.101Z,94.10
2022-08-14T00:24:01.395Z,94.70
2022-08-14T00:25:08.821Z,94.40
2022-08-14T00:26:23.158Z,94.50
2022-08-14T00:27:26.957Z,94.50
2022-08-14T00:28:35.309Z,94.50
2022-08-14T00:29:40.684Z,94.70
2022-08-14T00:30:48.521Z,94.70
2022-08-14T00:31:55.283Z,94.60
2022-08-14T00:33:00.006Z,94.60
2022-08-14T00:34:37.521Z,94.00
2022-08-14T00:36:33.945Z,94.50
2022-08-14T00:36:50.911Z,94.70
2022-08-14T00:37:53.743Z,94.70
2022-08-14T00:38:58.708Z,94.60
2022-08-14T00:40:03.118Z,94.20
2022-08-14T00:41:24.174Z,93.90
2022-08-14T00:43:02.950Z,94.50
2022-08-14T00:43:52.217Z,94.20
2022-08-14T00:45:00.087Z,94.10
2022-08-14T00:46:07.919Z,93.80
2022-08-14T00:47:13.742Z,94.30
2022-08-14T00:48:34.696Z,94.00
2022-08-14T00:49:42.934Z,93.70
2022-08-14T00:50:47.177Z,94.00
2022-08-14T00:51:52.341Z,94.20
2022-08-14T00:52:56.551Z,93.80
2022-08-14T00:53:59.337Z,93.80
2022-08-14T00:55:03.835Z,94.00
2022-08-14T00:56:09.720Z,94.00
2022-08-14T00:57:20.585Z,94.10
2022-08-14T00:58:33.388Z,94.20
2022-08-14T00:59:37.335Z,94.50
2022-08-14T01:00:51.445Z,94.60
2022-08-14T01:02:02.915Z,94.40
2022-08-14T01:03:08.809Z,94.40
2022-08-14T01:04:38.361Z,94.80
2022-08-14T01:05:41.868Z,94.70
2022-08-14T01:06:55.233Z,94.80
2022-08-14T01:07:58.635Z,95.40
2022-08-14T01:09:03.621Z,95.40
2022-08-14T01:10:07.265Z,94.90
2022-08-14T01:11:19.444Z,95.40
2022-08-14T01:12:29.918Z,95.60
2022-08-14T01:13:42.683Z,94.90
2022-08-14T01:14:45.777Z,95.00
2022-08-14T01:15:58.636Z,95.10
2022-08-14T01:17:05.802Z,94.90
2022-08-14T01:18:30.872Z,94.80
2022-08-14T01:19:53.774Z,94.70
2022-08-14T01:21:07.345Z,94.70
2022-08-14T01:22:13.113Z,94.60
2022-08-14T01:23:19.468Z,94.80
2022-08-14T01:24:34.434Z,94.70
2022-08-14T01:25:38.499Z,94.60
2022-08-14T01:26:47.435Z,94.60
2022-08-14T01:27:57.707Z,94.60
2022-08-14T01:29:03.918Z,94.40
2022-08-14T01:30:08.055Z,94.20
2022-08-14T01:31:15.728Z,94.30
2022-08-14T01:32:22.771Z,94.50
2022-08-14T01:33:30.248Z,94.20
2022-08-14T01:35:20.627Z,94.40
2022-08-14T01:36:05.337Z,94.20
2022-08-14T01:37:25.114Z,94.00
2022-08-14T01:38:37.208Z,94.10
2022-08-14T01:39:40.438Z,93.90
2022-08-14T01:40:44.389Z,93.90
2022-08-14T01:41:55.760Z,93.70
2022-08-14T01:43:02.551Z,93.80
2022-08-14T01:44:32.479Z,93.10
2022-08-14T01:45:40.249Z,93.20
2022-08-14T01:46:46.494Z,93.80
2022-08-14T01:48:03.317Z,93.90
2022-08-14T01:49:11.947Z,93.80
2022-08-14T01:50:17.268Z,93.30
2022-08-14T01:51:24.230Z,93.40
2022-08-14T01:52:33.554Z,93.40
2022-08-14T01:53:39.645Z,93.70
2022-08-14T01:54:42.443Z,93.30
2022-08-14T01:55:49.759Z,92.40
2022-08-14T01:56:56.630Z,93.30
2022-08-14T01:58:19.830Z,92.80
2022-08-14T01:59:37.515Z,93.10
2022-08-14T02:00:41.027Z,92.40
2022-08-14T02:01:58.028Z,93.10
2022-08-14T02:03:02.000Z,93.20
2022-08-14T02:04:06.413Z,92.70
2022-08-14T02:05:35.593Z,92.90
2022-08-14T02:06:41.647Z,93.00
2022-08-14T02:07:55.937Z,92.60
2022-08-14T02:09:19.368Z,92.60
2022-08-14T02:10:29.126Z,93.50
2022-08-14T02:11:35.559Z,93.30
2022-08-14T02:12:38.349Z,93.20
2022-08-14T02:13:44.075Z,93.70
2022-08-14T02:14:59.079Z,94.10
2022-08-14T02:16:13.432Z,93.70
2022-08-14T02:17:25.789Z,94.30
2022-08-14T02:18:28.750Z,95.00
2022-08-14T02:19:36.849Z,94.10
2022-08-14T02:20:39.996Z,94.50
2022-08-14T02:21:48.919Z,94.10
2022-08-14T02:22:55.072Z,94.20
2022-08-14T02:24:00.393Z,94.10
2022-08-14T02:25:03.049Z,94.30
2022-08-14T02:26:24.834Z,94.40
2022-08-14T02:28:23.110Z,94.90
2022-08-14T02:29:00.942Z,94.70
2022-08-14T02:30:09.230Z,94.80
2022-08-14T02:33:19.826Z,95.20
2022-08-14T02:34:29.304Z,95.60
2022-08-14T02:35:33.287Z,95.80
2022-08-14T02:37:05.430Z,96.00
2022-08-14T02:38:11.740Z,96.20
2022-08-14T02:39:16.321Z,96.30
2022-08-14T02:40:32.452Z,96.40
2022-08-14T02:41:39.927Z,96.90
2022-08-14T02:42:54.819Z,96.50
2022-08-14T02:44:00.820Z,96.80
2022-08-14T02:45:07.564Z,96.50
2022-08-14T02:46:12.547Z,96.50
2022-08-14T02:47:19.176Z,96.70
2022-08-14T02:49:01.469Z,96.70
2022-08-14T02:49:50.533Z,96.90
2022-08-14T02:50:57.258Z,97.30
2022-08-14T02:52:26.996Z,97.00
2022-08-14T02:53:33.533Z,97.40
2022-08-14T02:54:36.286Z,97.20
2022-08-14T02:55:40.409Z,97.10
2022-08-14T02:57:15.615Z,97.20
2022-08-14T02:58:08.511Z,97.20
2022-08-14T02:59:14.394Z,97.30
2022-08-14T03:00:18.884Z,97.20
2022-08-14T03:01:24.190Z,96.40
2022-08-14T03:02:56.445Z,96.70
2022-08-14T03:03:57.831Z,96.70
2022-08-14T03:05:01.857Z,96.10
2022-08-14T03:06:05.817Z,96.40
2022-08-14T03:07:11.360Z,96.60
2022-08-14T03:08:20.103Z,96.30
2022-08-14T03:09:42.318Z,96.10
2022-08-14T03:10:50.188Z,96.40
2022-08-14T03:11:54.101Z,96.30
2022-08-14T03:12:59.224Z,96.50
2022-08-14T03:14:05.101Z,96.40
2022-08-14T03:15:13.917Z,95.90
2022-08-14T03:16:26.886Z,96.00
2022-08-14T03:17:31.794Z,96.40
2022-08-14T03:18:46.732Z,95.90
2022-08-14T03:19:55.012Z,96.30
2022-08-14T03:21:04.407Z,95.90
2022-08-14T03:22:09.409Z,96.30
2022-08-14T03:23:23.898Z,95.90
2022-08-14T03:24:27.885Z,95.90
2022-08-14T03:25:37.665Z,95.90
2022-08-14T03:26:43.838Z,95.80
2022-08-14T03:27:48.475Z,95.50
2022-08-14T03:29:02.450Z,95.90
2022-08-14T03:30:06.810Z,96.20
2022-08-14T03:31:26.053Z,96.10
2022-08-14T03:32:33.537Z,96.00
2022-08-14T03:33:40.438Z,96.10
2022-08-14T03:34:48.056Z,95.90
2022-08-14T03:35:59.802Z,96.10
2022-08-14T03:37:39.280Z,96.20
2022-08-14T03:39:15.410Z,96.40
2022-08-14T03:39:58.123Z,96.60
2022-08-14T03:41:01.597Z,96.90
2022-08-14T03:42:05.077Z,97.10
2022-08-14T03:43:22.903Z,97.20
2022-08-14T03:45:19.986Z,97.30
2022-08-14T03:45:49.924Z,97.20
2022-08-14T03:46:56.229Z,97.20
2022-08-14T03:48:01.675Z,97.60
2022-08-14T03:49:05.912Z,97.70
2022-08-14T03:50:11.323Z,97.70
2022-08-14T03:51:16.000Z,97.50
2022-08-14T03:52:38.368Z,97.70
2022-08-14T03:53:45.923Z,98.00
2022-08-14T03:54:52.367Z,97.50
2022-08-14T03:55:59.116Z,97.40
2022-08-14T03:57:04.829Z,97.40
2022-08-14T03:58:08.484Z,97.50
2022-08-14T03:59:18.116Z,97.70
2022-08-14T04:00:42.920Z,97.40
2022-08-14T04:01:53.950Z,97.40
2022-08-14T04:03:07.628Z,97.70
2022-08-14T04:04:11.285Z,97.90
2022-08-14T04:05:16.338Z,97.80
2022-08-14T04:06:21.857Z,97.90
2022-08-14T04:07:32.916Z,98.00
2022-08-14T04:08:41.874Z,98.30
2022-08-14T04:09:44.499Z,98.20
2022-08-14T04:10:49.301Z,98.20
2022-08-14T04:11:54.606Z,98.30
2022-08-14T04:13:03.648Z,98.30
2022-08-14T04:14:08.267Z,98.70
2022-08-14T04:15:11.231Z,98.60
2022-08-14T04:16:18.063Z,98.60
2022-08-14T04:17:20.992Z,98.80
2022-08-14T04:18:25.777Z,98.70
2022-08-14T04:19:33.011Z,98.60
2022-08-14T04:20:54.446Z,98.60
2022-08-14T04:22:03.454Z,98.60
2022-08-14T04:23:10.501Z,98.70
2022-08-14T04:24:20.826Z,98.80
2022-08-14T04:25:31.813Z,98.60
2022-08-14T04:26:43.043Z,99.00
2022-08-14T04:28:01.837Z,98.70
2022-08-14T04:29:14.853Z,98.70
2022-08-14T04:30:30.719Z,98.80
2022-08-14T04:32:58.392Z,98.50
2022-08-14T04:33:05.508Z,98.20
2022-08-14T04:34:17.297Z,98.20
2022-08-14T04:35:27.787Z,98.30
2022-08-14T04:37:08.321Z,98.50
2022-08-14T04:38:37.184Z,98.70
2022-08-14T04:40:00.524Z,98.70
2022-08-14T04:41:24.299Z,98.70
2022-08-14T04:42:52.775Z,98.80
2022-08-14T04:43:57.649Z,98.80
2022-08-14T04:45:00.982Z,98.90
2022-08-14T04:46:04.804Z,99.00
2022-08-14T04:47:30.924Z,99.20
2022-08-14T04:48:42.977Z,99.30
2022-08-14T04:49:57.388Z,99.60
2022-08-14T04:51:03.469Z,99.90
2022-08-14T04:52:15.396Z,99.50
2022-08-14T04:53:26.198Z,99.70
2022-08-14T04:54:36.826Z,99.60
2022-08-14T04:55:43.059Z,99.50
2022-08-14T04:56:45.571Z,99.50
2022-08-14T04:57:49.430Z,99.50
2022-08-14T04:58:58.038Z,99.70
2022-08-14T05:00:08.390Z,99.40
2022-08-14T05:01:20.358Z,99.30
2022-08-14T05:02:24.637Z,99.30
2022-08-14T05:03:32.150Z,99.60
2022-08-14T05:04:35.784Z,99.40
2022-08-14T05:05:42.401Z,99.10
2022-08-14T05:06:46.378Z,99.00
2022-08-14T05:08:01.192Z,98.90
2022-08-14T05:09:05.896Z,98.80
2022-08-14T05:10:13.002Z,98.70
2022-08-14T05:11:19.371Z,98.70
2022-08-14T05:13:11.079Z,98.80
2022-08-14T05:14:16.779Z,98.90
2022-08-14T05:15:11.332Z,98.90
2022-08-14T05:16:14.830Z,99.10
2022-08-14T05:17:17.301Z,99.30
2022-08-14T05:19:16.904Z,99.40
2022-08-14T05:21:54.493Z,99.20
2022-08-14T05:21:56.030Z,99.20
2022-08-14T05:22:34.002Z,99.20
2022-08-14T05:23:39.344Z,99.00
2022-08-14T05:24:44.907Z,99.10
2022-08-14T05:25:51.463Z,99.10
2022-08-14T05:26:55.447Z,99.30
2022-08-14T05:28:00.701Z,99.00
2022-08-14T05:29:03.138Z,99.60
2022-08-14T05:30:18.490Z,99.30
2022-08-14T05:31:21.365Z,98.90
2022-08-14T05:32:27.238Z,98.80
2022-08-14T05:33:34.965Z,98.50
2022-08-14T05:34:37.456Z,98.20
2022-08-14T05:35:42.418Z,98.30
2022-08-14T05:36:50.518Z,98.20
2022-08-14T05:38:10.858Z,98.10
2022-08-14T05:39:24.867Z,98.40
2022-08-14T05:40:28.677Z,98.20
2022-08-14T05:41:52.338Z,98.30
2022-08-14T05:42:56.689Z,98.20
2022-08-14T05:44:01.304Z,98.00
2022-08-14T05:45:11.140Z,98.00
2022-08-14T05:46:23.010Z,97.90
2022-08-14T05:47:28.596Z,97.80
2022-08-14T05:48:43.198Z,97.60
2022-08-14T05:49:48.428Z,98.00
2022-08-14T05:50:51.835Z,97.90
2022-08-14T05:51:56.448Z,97.90
2022-08-14T05:53:01.438Z,97.80
2022-08-14T05:54:10.081Z,97.80
2022-08-14T05:55:16.751Z,98.00
2022-08-14T05:56:26.286Z,98.20
2022-08-14T05:57:35.096Z,98.20
2022-08-14T05:58:40.985Z,98.30
2022-08-14T05:59:43.838Z,98.00
2022-08-14T06:00:48.298Z,98.10
2022-08-14T06:01:53.735Z,98.10
2022-08-14T06:02:57.360Z,98.00
2022-08-14T06:04:00.204Z,98.20
2022-08-14T06:05:03.700Z,98.20
2022-08-14T06:06:08.124Z,98.00
2022-08-14T06:07:10.479Z,97.40
2022-08-14T06:08:31.291Z,97.20
2022-08-14T06:09:40.608Z,97.50
2022-08-14T06:10:44.493Z,97.60
2022-08-14T06:11:49.787Z,97.50
2022-08-14T06:12:55.681Z,97.80
2022-08-14T06:13:59.516Z,97.70
2022-08-14T06:15:05.895Z,97.80
2022-08-14T06:16:11.224Z,97.90
2022-08-14T06:17:26.245Z,98.00
2022-08-14T06:18:32.218Z,98.20
2022-08-14T06:19:34.796Z,98.20
2022-08-14T06:20:38.746Z,98.20
2022-08-14T06:21:44.543Z,98.70
2022-08-14T06:22:48.788Z,98.40
2022-08-14T06:23:52.536Z,98.40
2022-08-14T06:24:55.845Z,98.40
2022-08-14T06:25:58.592Z,98.70
2022-08-14T06:27:04.554Z,98.30
2022-08-14T06:28:27.326Z,98.40
2022-08-14T06:29:32.499Z,98.40
2022-08-14T06:30:45.640Z,98.40
2022-08-14T06:32:00.193Z,98.40
2022-08-14T06:33:06.914Z,98.40
2022-08-14T06:35:02.544Z,98.50
2022-08-14T06:35:33.208Z,98.40
2022-08-14T06:36:37.904Z,98.50
2022-08-14T06:37:45.498Z,98.40
2022-08-14T06:38:53.316Z,98.40
2022-08-14T06:39:56.920Z,98.50
2022-08-14T06:41:00.581Z,98.50
2022-08-14T06:42:05.848Z,98.80
2022-08-14T06:43:12.338Z,98.90
2022-08-14T06:44:18.917Z,98.90
2022-08-14T06:45:26.362Z,98.80
2022-08-14T06:46:34.462Z,98.80
2022-08-14T06:47:43.786Z,99.00
2022-08-14T06:48:49.754Z,99.00
2022-08-14T06:49:57.714Z,99.00
2022-08-14T06:51:02.073Z,99.10
2022-08-14T06:52:05.074Z,99.20
2022-08-14T06:53:09.806Z,99.40
2022-08-14T06:54:12.859Z,99.50
2022-08-14T06:55:20.765Z,99.80
2022-08-14T06:56:28.283Z,99.50
2022-08-14T06:57:38.871Z,99.70
2022-08-14T06:58:41.617Z,99.70
2022-08-14T06:59:46.268Z,99.70
2022-08-14T07:01:03.568Z,99.80
2022-08-14T07:02:24.962Z,99.90
2022-08-14T07:03:51.056Z,99.40
2022-08-14T07:05:21.105Z,99.00
2022-08-14T07:06:46.404Z,98.40
2022-08-14T07:07:50.943Z,98.30
2022-08-14T07:08:54.692Z,98.40
2022-08-14T07:09:57.037Z,98.60
2022-08-14T07:11:04.058Z,98.30
2022-08-14T07:12:07.898Z,97.70
2022-08-14T07:13:12.852Z,97.50
2022-08-14T07:14:15.268Z,97.30
2022-08-14T07:15:19.354Z,97.20
2022-08-14T07:16:22.083Z,97.10
2022-08-14T07:17:31.933Z,96.90
2022-08-14T07:18:37.762Z,96.70
2022-08-14T07:19:43.380Z,96.70
2022-08-14T07:20:56.611Z,97.30
2022-08-14T07:22:00.050Z,96.80
2022-08-14T07:23:19.853Z,96.50
2022-08-14T07:24:31.082Z,96.10
2022-08-14T07:25:37.670Z,96.00
2022-08-14T07:29:46.722Z,96.10
2022-08-14T07:30:56.513Z,95.80
2022-08-14T07:32:00.463Z,95.40
2022-08-14T07:33:07.698Z,95.40
2022-08-14T07:34:36.148Z,95.60
2022-08-14T07:35:57.326Z,95.50
2022-08-14T07:37:03.168Z,95.40
2022-08-14T07:38:06.121Z,95.40
2022-08-14T07:39:12.227Z,95.00
2022-08-14T07:40:22.123Z,94.70
2022-08-14T07:41:35.758Z,94.60
2022-08-14T07:42:41.126Z,94.60
2022-08-14T07:43:52.922Z,94.70
2022-08-14T07:44:58.443Z,94.50
2022-08-14T07:46:01.949Z,94.70
2022-08-14T07:47:05.695Z,94.70
2022-08-14T07:48:09.392Z,94.90
2022-08-14T07:49:18.459Z,94.90
2022-08-14T07:50:21.974Z,94.60
2022-08-14T07:51:26.109Z,94.60
2022-08-14T07:52:40.634Z,94.50
2022-08-14T07:53:45.765Z,94.70
2022-08-14T07:54:50.892Z,95.00
2022-08-14T07:56:00.475Z,95.20
2022-08-14T07:57:24.891Z,95.40
2022-08-14T07:58:33.977Z,95.60
2022-08-14T07:59:42.496Z,95.60
2022-08-14T08:00:46.665Z,95.60
2022-08-14T08:01:57.470Z,95.60
2022-08-14T08:03:01.051Z,95.70
2022-08-14T08:04:15.504Z,95.50
2022-08-14T08:05:25.046Z,95.50
2022-08-14T08:06:29.682Z,95.60
2022-08-14T08:07:33.755Z,95.70
2022-08-14T08:08:37.565Z,95.80
2022-08-14T08:09:53.042Z,95.80
2022-08-14T08:11:02.910Z,96.00
2022-08-14T08:12:09.354Z,96.00
2022-08-14T08:13:23.959Z,96.00
2022-08-14T08:14:28.480Z,96.10
2022-08-14T08:15:34.788Z,96.20
2022-08-14T08:16:38.481Z,96.30
2022-08-14T08:17:53.722Z,96.50
2022-08-14T08:19:12.569Z,96.60
2022-08-14T08:20:20.221Z,96.60
2022-08-14T08:21:26.980Z,96.60
2022-08-14T08:22:32.507Z,96.70
2022-08-14T08:23:43.722Z,96.50
2022-08-14T08:24:55.349Z,96.60
2022-08-14T08:26:01.421Z,96.30
2022-08-14T08:27:16.808Z,96.30
2022-08-14T08:28:25.508Z,96.20
2022-08-14T08:29:29.773Z,96.20
2022-08-14T08:30:34.694Z,96.30
2022-08-14T08:31:51.931Z,96.50
2022-08-14T08:32:58.540Z,96.50
2022-08-14T08:34:07.136Z,96.40
2022-08-14T08:35:21.243Z,96.50
2022-08-14T08:36:25.305Z,96.40
2022-08-14T08:37:40.145Z,96.10
2022-08-14T08:39:18.062Z,96.00
2022-08-14T08:40:23.937Z,95.50
2022-08-14T08:41:41.544Z,94.90
2022-08-14T08:42:46.114Z,94.90
2022-08-14T08:44:05.784Z,95.00
2022-08-14T08:45:21.747Z,95.10
2022-08-14T08:46:29.617Z,95.20
2022-08-14T08:47:39.040Z,95.00
2022-08-14T08:48:53.876Z,94.80
2022-08-14T08:49:59.699Z,94.80
2022-08-14T08:51:05.275Z,95.00
2022-08-14T08:52:24.448Z,95.10
2022-08-14T08:53:32.789Z,95.10
2022-08-14T08:54:35.570Z,94.90
2022-08-14T08:55:43.634Z,95.10
2022-08-14T08:56:48.936Z,95.40
2022-08-14T08:57:56.302Z,95.40
2022-08-14T08:58:58.817Z,95.50
2022-08-14T09:00:09.983Z,95.70
2022-08-14T09:01:30.916Z,95.90
2022-08-14T09:02:34.764Z,95.90
2022-08-14T09:03:43.941Z,96.10
2022-08-14T09:04:53.149Z,96.00
2022-08-14T09:06:01.426Z,96.00
2022-08-14T09:07:10.828Z,96.10
2022-08-14T09:08:30.495Z,95.90
2022-08-14T09:09:53.516Z,95.90
2022-08-14T09:11:01.831Z,96.00
2022-08-14T09:12:07.271Z,96.00
2022-08-14T09:13:19.383Z,95.90
2022-08-14T09:14:22.162Z,95.40
2022-08-14T09:15:26.113Z,95.60
2022-08-14T09:16:45.111Z,95.60
2022-08-14T09:17:51.680Z,95.70
2022-08-14T09:18:55.305Z,95.60
2022-08-14T09:20:02.343Z,95.70
2022-08-14T09:21:09.866Z,95.40
2022-08-14T09:22:35.138Z,95.70
2022-08-14T09:24:26.542Z,95.70
2022-08-14T09:25:03.050Z,95.70
2022-08-14T09:26:21.303Z,95.90
2022-08-14T09:27:24.216Z,95.60
2022-08-14T09:28:27.862Z,95.50
2022-08-14T09:29:31.811Z,95.60
2022-08-14T09:30:39.437Z,95.70
2022-08-14T09:31:53.400Z,95.40
2022-08-14T09:33:30.567Z,95.30
2022-08-14T09:34:58.153Z,95.20
2022-08-14T09:36:26.333Z,95.30
2022-08-14T09:37:41.925Z,95.20
2022-08-14T09:38:51.622Z,95.50
2022-08-14T09:40:10.250Z,95.60
2022-08-14T09:42:20.410Z,95.80
2022-08-14T09:43:13.138Z,96.10
2022-08-14T09:44:30.000Z,95.80
2022-08-14T09:45:53.158Z,95.80
2022-08-14T09:46:58.040Z,95.90
2022-08-14T09:48:15.007Z,96.00
2022-08-14T09:49:18.348Z,96.00
2022-08-14T09:50:28.548Z,96.10
2022-08-14T09:51:51.579Z,96.20
2022-08-14T09:52:59.768Z,96.20
2022-08-14T09:54:18.674Z,96.00
2022-08-14T09:55:36.831Z,96.30
2022-08-14T09:56:57.509Z,96.10
2022-08-14T09:58:19.346Z,96.30
2022-08-14T09:59:25.629Z,96.50
2022-08-14T10:00:44.400Z,96.60
2022-08-14T10:01:53.109Z,96.70
2022-08-14T10:03:05.242Z,96.60
2022-08-14T10:04:34.489Z,96.40
2022-08-14T10:05:40.827Z,96.50
2022-08-14T10:06:45.604Z,96.10
2022-08-14T10:07:53.366Z,96.30
2022-08-14T10:09:04.184Z,96.20
2022-08-14T10:10:23.461Z,96.20
2022-08-14T10:11:34.860Z,96.40
2022-08-14T10:12:49.260Z,96.40
2022-08-14T10:14:00.129Z,96.30
2022-08-14T10:15:03.770Z,96.30
2022-08-14T10:16:06.899Z,96.50
2022-08-14T10:17:27.656Z,96.40
2022-08-14T10:18:41.281Z,96.30
2022-08-14T10:19:50.101Z,96.60
2022-08-14T10:20:57.594Z,96.50
2022-08-14T10:23:13.472Z,96.50
2022-08-14T10:23:33.951Z,96.50
2022-08-14T10:24:40.593Z,96.40
2022-08-14T10:25:51.309Z,96.30
2022-08-14T10:27:00.527Z,96.00
2022-08-14T10:28:06.483Z,96.20
2022-08-14T10:29:35.096Z,96.00
2022-08-14T10:30:38.921Z,95.80
2022-08-14T10:31:45.183Z,95.90
2022-08-14T10:32:51.671Z,95.80
2022-08-14T10:34:00.737Z,95.90
2022-08-14T10:35:14.433Z,96.00
2022-08-14T10:36:36.994Z,96.10
2022-08-14T10:37:48.434Z,96.20
2022-08-14T10:38:58.241Z,96.10
2022-08-14T10:40:10.345Z,96.00
2022-08-14T10:41:46.502Z,95.90
2022-08-14T10:42:51.162Z,96.00
2022-08-14T10:44:21.440Z,95.80
2022-08-14T10:45:33.858Z,95.90
2022-08-14T10:47:39.642Z,96.10
2022-08-14T10:48:23.659Z,96.40
2022-08-14T10:49:39.139Z,96.00
2022-08-14T10:50:46.447Z,96.20
2022-08-14T10:52:00.248Z,96.30
2022-08-14T10:53:05.677Z,96.30
2022-08-14T10:54:35.570Z,96.10
2022-08-14T10:55:44.949Z,96.20
2022-08-14T10:56:48.331Z,95.90
2022-08-14T10:57:57.792Z,95.80
2022-08-14T10:59:02.950Z,95.60
2022-08-14T11:00:29.597Z,95.80
2022-08-14T11:01:41.418Z,95.70
2022-08-14T11:02:55.257Z,95.60
2022-08-14T11:04:03.264Z,95.50
2022-08-14T11:05:14.970Z,95.40
2022-08-14T11:06:20.781Z,95.30
2022-08-14T11:07:23.601Z,95.50
2022-08-14T11:08:33.860Z,95.00
2022-08-14T11:09:36.457Z,94.00
2022-08-14T11:10:49.442Z,94.30
2022-08-14T11:12:34.904Z,93.90
2022-08-14T11:13:23.933Z,93.80
2022-08-14T11:14:27.090Z,93.70
2022-08-14T11:15:32.435Z,93.70
2022-08-14T11:16:39.383Z,93.40
2022-08-14T11:17:46.461Z,93.30
2022-08-14T11:18:55.900Z,93.80
2022-08-14T11:20:05.889Z,93.80
2022-08-14T11:21:21.451Z,93.70
2022-08-14T11:22:56.760Z,93.40
2022-08-14T11:23:57.148Z,93.30
2022-08-14T11:25:06.504Z,93.40
2022-08-14T11:26:10.762Z,93.50
2022-08-14T11:27:16.766Z,93.50
2022-08-14T11:28:46.820Z,93.50
2022-08-14T11:29:52.575Z,93.30
2022-08-14T11:31:05.416Z,93.20
2022-08-14T11:32:09.781Z,93.10
2022-08-14T11:33:13.782Z,93.00
2022-08-14T11:34:29.779Z,93.40
2022-08-14T11:35:44.246Z,93.40
2022-08-14T11:37:04.340Z,93.50
2022-08-14T11:38:21.868Z,93.70
2022-08-14T11:39:34.910Z,93.60
2022-08-14T11:40:43.697Z,93.50
2022-08-14T11:41:55.658Z,93.50
2022-08-14T11:43:01.386Z,93.60
2022-08-14T11:44:13.064Z,93.70
2022-08-14T11:45:23.557Z,93.60
2022-08-14T11:46:29.603Z,93.60
2022-08-14T11:47:35.187Z,93.60
2022-08-14T11:49:02.642Z,93.60
2022-08-14T11:50:13.574Z,93.50
2022-08-14T11:51:23.961Z,93.60
2022-08-14T11:52:34.843Z,93.40
2022-08-14T11:53:45.723Z,93.60
2022-08-14T11:54:58.057Z,93.50
2022-08-14T11:56:06.119Z,93.40
2022-08-14T11:57:16.331Z,93.20
2022-08-14T11:58:28.534Z,93.10
2022-08-14T11:59:33.589Z,92.90
2022-08-14T12:00:48.775Z,92.80
2022-08-14T12:01:55.125Z,93.00
2022-08-14T12:03:03.445Z,93.10
2022-08-14T12:04:31.838Z,92.90
2022-08-14T12:05:39.909Z,92.40
2022-08-14T12:06:52.438Z,92.30
2022-08-14T12:07:56.531Z,92.30
2022-08-14T12:09:00.769Z,92.40
2022-08-14T12:10:26.353Z,92.60
2022-08-14T12:11:43.237Z,92.60
2022-08-14T12:12:48.821Z,92.20
2022-08-14T12:13:56.069Z,92.00
2022-08-14T12:15:01.994Z,92.10
2022-08-14T12:16:11.116Z,92.40
2022-08-14T12:17:23.446Z,92.30
2022-08-14T12:18:32.656Z,92.00
2022-08-14T12:19:51.581Z,91.90
2022-08-14T12:20:59.515Z,91.80
2022-08-14T12:22:02.898Z,92.00
2022-08-14T12:23:09.052Z,92.30
2022-08-14T12:24:36.049Z,92.40
2022-08-14T12:25:36.561Z,92.50
2022-08-14T12:26:41.751Z,92.50
2022-08-14T12:27:53.991Z,92.40
2022-08-14T12:29:08.672Z,92.50
2022-08-14T12:30:15.080Z,92.60
2022-08-14T12:31:24.977Z,92.70
2022-08-14T12:32:42.024Z,92.40
2022-08-14T12:33:56.965Z,92.60
2022-08-14T12:34:59.421Z,92.40
2022-08-14T12:36:12.308Z,92.80
2022-08-14T12:37:31.822Z,92.70
2022-08-14T12:38:38.806Z,92.60
2022-08-14T12:39:42.007Z,92.50
2022-08-14T12:40:48.722Z,92.40
2022-08-14T12:41:57.313Z,92.50
2022-08-14T12:43:02.288Z,92.50
2022-08-14T12:44:08.737Z,92.40
2022-08-14T12:45:17.351Z,92.30
2022-08-14T12:46:27.539Z,92.40
2022-08-14T12:47:31.487Z,92.50
2022-08-14T12:48:50.365Z,92.40
2022-08-14T12:49:57.838Z,92.40
2022-08-14T12:51:01.666Z,92.20
2022-08-14T12:52:10.536Z,92.10
2022-08-14T12:53:22.136Z,92.20
2022-08-14T12:54:28.465Z,92.10
2022-08-14T12:56:22.590Z,92.30
2022-08-14T12:57:08.412Z,92.20
2022-08-14T12:58:29.614Z,91.80
2022-08-14T12:59:43.039Z,91.90
2022-08-14T13:01:14.281Z,91.80
2022-08-14T13:02:25.286Z,91.60
2022-08-14T13:03:29.817Z,91.60
2022-08-14T13:04:35.419Z,91.60
2022-08-14T13:05:38.421Z,91.60
2022-08-14T13:06:50.704Z,91.80
2022-08-14T13:07:59.206Z,91.90
2022-08-14T13:09:02.072Z,92.00
2022-08-14T13:10:46.022Z,92.00
2022-08-14T13:11:41.039Z,92.00
2022-08-14T13:13:10.072Z,92.10
2022-08-14T13:14:09.320Z,92.30
2022-08-14T13:15:20.510Z,92.30
2022-08-14T13:16:33.533Z,92.30
2022-08-14T13:17:46.065Z,92.00
2022-08-14T13:18:58.364Z,91.90
2022-08-14T13:20:10.255Z,91.80
2022-08-14T13:21:15.093Z,91.80
2022-08-14T13:22:19.808Z,91.70
2022-08-14T13:23:38.439Z,91.40
2022-08-14T13:24:41.554Z,91.00
2022-08-14T13:25:55.625Z,90.90
2022-08-14T13:27:00.519Z,90.80
2022-08-14T13:28:04.884Z,90.40
2022-08-14T13:29:18.535Z,90.30
2022-08-14T13:30:26.254Z,90.20
2022-08-14T13:31:34.154Z,90.00
2022-08-14T13:32:40.597Z,90.20
2022-08-14T13:33:43.057Z,90.20
2022-08-14T13:34:52.633Z,90.10
2022-08-14T13:35:57.678Z,90.30
2022-08-14T13:37:03.704Z,90.10
2022-08-14T13:38:06.855Z,90.20
2022-08-14T13:39:18.586Z,90.30
2022-08-14T13:40:26.512Z,90.50
2022-08-14T13:41:34.613Z,90.40
2022-08-14T13:42:44.133Z,90.10
2022-08-14T13:43:59.627Z,90.10
2022-08-14T13:45:07.129Z,90.10
2022-08-14T13:46:11.376Z,89.90
2022-08-14T13:47:16.079Z,90.20
2022-08-14T13:48:32.495Z,90.10
2022-08-14T13:49:40.269Z,90.30
2022-08-14T13:51:04.241Z,90.30
2022-08-14T13:52:14.594Z,90.20
2022-08-14T13:54:07.165Z,89.90
2022-08-14T13:55:13.871Z,89.50
2022-08-14T13:56:36.024Z,89.10
2022-08-14T13:57:49.557Z,89.50
2022-08-14T13:59:00.142Z,89.10
2022-08-14T14:00:07.180Z,89.10
2022-08-14T14:01:19.147Z,88.70
2022-08-14T14:02:34.060Z,88.80
2022-08-14T14:03:39.713Z,89.20
2022-08-14T14:04:49.328Z,89.10
2022-08-14T14:05:55.137Z,89.00
2022-08-14T14:07:03.006Z,89.00
2022-08-14T14:08:18.552Z,89.30
2022-08-14T14:09:43.828Z,89.30
2022-08-14T14:10:57.519Z,88.50
2022-08-14T14:12:00.715Z,88.50
2022-08-14T14:13:05.923Z,88.80
2022-08-14T14:14:45.161Z,88.40
2022-08-14T14:15:58.175Z,88.90
2022-08-14T14:17:02.009Z,89.50
2022-08-14T14:18:04.564Z,89.20
2022-08-14T14:19:30.979Z,88.90
2022-08-14T14:20:34.157Z,89.10
2022-08-14T14:21:40.327Z,89.40
2022-08-14T14:23:01.843Z,89.70
2022-08-14T14:24:06.968Z,89.60
2022-08-14T14:25:10.416Z,90.10
2022-08-14T14:26:23.498Z,90.10
2022-08-14T14:27:44.216Z,90.20
2022-08-14T14:28:51.862Z,90.30
2022-08-14T14:29:59.508Z,90.40
2022-08-14T14:31:06.816Z,90.30
2022-08-14T14:32:11.463Z,90.40
2022-08-14T14:33:48.729Z,90.30
2022-08-14T14:34:55.689Z,90.30
2022-08-14T14:36:02.776Z,90.30
2022-08-14T14:37:12.365Z,90.10
2022-08-14T14:38:18.131Z,90.20
2022-08-14T14:39:26.865Z,90.00
2022-08-14T14:40:52.393Z,89.70
2022-08-14T14:42:04.046Z,89.20
2022-08-14T14:43:12.512Z,89.30
2022-08-14T14:44:17.550Z,89.10
2022-08-14T14:45:24.180Z,89.10
2022-08-14T14:46:36.875Z,89.10
2022-08-14T14:47:42.567Z,88.70
2022-08-14T14:48:53.957Z,88.50
2022-08-14T14:49:58.250Z,88.70
2022-08-14T14:51:01.991Z,89.20
2022-08-14T14:52:11.824Z,88.80
2022-08-14T14:53:28.426Z,89.00
2022-08-14T14:54:37.468Z,88.60
2022-08-14T14:55:43.272Z,88.30
2022-08-14T14:57:09.357Z,88.50
2022-08-14T14:58:16.437Z,88.10
2022-08-14T14:59:23.691Z,88.60
2022-08-14T15:00:30.979Z,88.50
2022-08-14T15:01:36.519Z,87.70
2022-08-14T15:02:42.524Z,87.80
2022-08-14T15:03:46.117Z,87.80
2022-08-14T15:04:49.626Z,88.10
2022-08-14T15:05:53.338Z,88.20
2022-08-14T15:06:56.623Z,87.50
2022-08-14T15:07:59.276Z,87.60
2022-08-14T15:09:04.689Z,87.50
2022-08-14T15:10:26.897Z,87.60
2022-08-14T15:11:34.616Z,87.50
2022-08-14T15:12:56.041Z,87.90
2022-08-14T15:14:00.362Z,87.80